sensor_id;sensor_type;location;lat;lon;timestamp;P1;durP1;ratioP1;P2;durP2;ratioP2
52530;SDS011;38441;52.894;6.040;2024-01-30T00:01:50;19.20;;;13.50;;
52530;SDS011;38441;52.894;6.040;2024-01-30T00:04:16;17.58;;;13.10;;
52530;SDS011;38441;52.894;6.040;2024-01-30T00:06:42;20.90;;;13.18;;
52530;SDS011;38441;52.894;6.040;2024-01-30T00:09:08;17.80;;;13.85;;
52530;SDS011;38441;52.894;6.040;2024-01-30T00:11:35;19.05;;;13.77;;
52530;SDS011;38441;52.894;6.040;2024-01-30T00:14:01;21.77;;;14.25;;
52530;SDS011;38441;52.894;6.040;2024-01-30T00:16:28;18.92;;;13.77;;
52530;SDS011;38441;52.894;6.040;2024-01-30T00:18:54;20.05;;;13.80;;
52530;SDS011;38441;52.894;6.040;2024-01-30T00:21:20;17.38;;;13.88;;
52530;SDS011;38441;52.894;6.040;2024-01-30T00:23:46;18.60;;;13.40;;
52530;SDS011;38441;52.894;6.040;2024-01-30T00:26:12;19.15;;;14.10;;
52530;SDS011;38441;52.894;6.040;2024-01-30T00:28:39;16.40;;;12.65;;
52530;SDS011;38441;52.894;6.040;2024-01-30T00:31:08;17.67;;;12.85;;
52530;SDS011;38441;52.894;6.040;2024-01-30T00:33:40;16.83;;;13.02;;
52530;SDS011;38441;52.894;6.040;2024-01-30T00:36:07;18.60;;;13.45;;
52530;SDS011;38441;52.894;6.040;2024-01-30T00:38:34;18.80;;;13.50;;
52530;SDS011;38441;52.894;6.040;2024-01-30T00:41:00;17.88;;;12.57;;
52530;SDS011;38441;52.894;6.040;2024-01-30T00:43:30;17.85;;;13.10;;
52530;SDS011;38441;52.894;6.040;2024-01-30T00:45:56;18.83;;;13.10;;
52530;SDS011;38441;52.894;6.040;2024-01-30T00:48:23;19.60;;;14.25;;
52530;SDS011;38441;52.894;6.040;2024-01-30T00:50:48;17.35;;;13.18;;
52530;SDS011;38441;52.894;6.040;2024-01-30T00:53:14;18.67;;;13.45;;
52530;SDS011;38441;52.894;6.040;2024-01-30T00:55:40;16.92;;;12.98;;
52530;SDS011;38441;52.894;6.040;2024-01-30T00:58:06;18.50;;;13.32;;
52530;SDS011;38441;52.894;6.040;2024-01-30T01:00:32;17.35;;;12.02;;
52530;SDS011;38441;52.894;6.040;2024-01-30T01:02:58;19.27;;;13.40;;
52530;SDS011;38441;52.894;6.040;2024-01-30T01:05:24;17.15;;;12.93;;
52530;SDS011;38441;52.894;6.040;2024-01-30T01:07:50;19.77;;;13.07;;
52530;SDS011;38441;52.894;6.040;2024-01-30T01:10:16;18.10;;;13.07;;
52530;SDS011;38441;52.894;6.040;2024-01-30T01:12:42;19.65;;;13.50;;
52530;SDS011;38441;52.894;6.040;2024-01-30T01:15:08;20.38;;;13.85;;
52530;SDS011;38441;52.894;6.040;2024-01-30T01:17:37;18.65;;;12.85;;
52530;SDS011;38441;52.894;6.040;2024-01-30T01:20:03;19.35;;;13.05;;
52530;SDS011;38441;52.894;6.040;2024-01-30T01:22:31;18.65;;;13.07;;
52530;SDS011;38441;52.894;6.040;2024-01-30T01:24:57;17.05;;;12.95;;
52530;SDS011;38441;52.894;6.040;2024-01-30T01:27:24;19.08;;;13.57;;
52530;SDS011;38441;52.894;6.040;2024-01-30T01:29:50;17.52;;;13.27;;
52530;SDS011;38441;52.894;6.040;2024-01-30T01:32:16;21.38;;;13.52;;
52530;SDS011;38441;52.894;6.040;2024-01-30T01:34:41;16.77;;;13.00;;
52530;SDS011;38441;52.894;6.040;2024-01-30T01:37:07;19.45;;;12.98;;
52530;SDS011;38441;52.894;6.040;2024-01-30T01:39:33;20.58;;;13.50;;
52530;SDS011;38441;52.894;6.040;2024-01-30T01:41:59;17.92;;;12.95;;
52530;SDS011;38441;52.894;6.040;2024-01-30T01:44:25;17.50;;;12.52;;
52530;SDS011;38441;52.894;6.040;2024-01-30T01:46:51;21.75;;;13.02;;
52530;SDS011;38441;52.894;6.040;2024-01-30T01:49:18;17.42;;;12.95;;
52530;SDS011;38441;52.894;6.040;2024-01-30T01:51:46;17.90;;;12.57;;
52530;SDS011;38441;52.894;6.040;2024-01-30T01:54:13;16.85;;;12.70;;
52530;SDS011;38441;52.894;6.040;2024-01-30T01:56:40;17.60;;;13.15;;
52530;SDS011;38441;52.894;6.040;2024-01-30T01:59:08;19.75;;;12.65;;
52530;SDS011;38441;52.894;6.040;2024-01-30T02:01:37;17.70;;;13.23;;
52530;SDS011;38441;52.894;6.040;2024-01-30T02:04:03;17.70;;;13.15;;
52530;SDS011;38441;52.894;6.040;2024-01-30T02:06:29;19.63;;;12.70;;
52530;SDS011;38441;52.894;6.040;2024-01-30T02:08:55;18.55;;;12.75;;
52530;SDS011;38441;52.894;6.040;2024-01-30T02:11:22;20.80;;;13.05;;
52530;SDS011;38441;52.894;6.040;2024-01-30T02:13:48;17.90;;;12.73;;
52530;SDS011;38441;52.894;6.040;2024-01-30T02:16:14;18.83;;;13.48;;
52530;SDS011;38441;52.894;6.040;2024-01-30T02:18:40;17.38;;;13.15;;
52530;SDS011;38441;52.894;6.040;2024-01-30T02:21:12;21.17;;;13.30;;
52530;SDS011;38441;52.894;6.040;2024-01-30T02:23:39;17.40;;;13.10;;
52530;SDS011;38441;52.894;6.040;2024-01-30T02:26:05;17.42;;;12.93;;
52530;SDS011;38441;52.894;6.040;2024-01-30T02:28:31;18.27;;;12.93;;
52530;SDS011;38441;52.894;6.040;2024-01-30T02:30:57;17.23;;;12.38;;
52530;SDS011;38441;52.894;6.040;2024-01-30T02:33:22;17.70;;;12.88;;
52530;SDS011;38441;52.894;6.040;2024-01-30T02:35:48;17.17;;;12.75;;
52530;SDS011;38441;52.894;6.040;2024-01-30T02:38:15;18.20;;;12.40;;
52530;SDS011;38441;52.894;6.040;2024-01-30T02:40:41;18.67;;;12.35;;
52530;SDS011;38441;52.894;6.040;2024-01-30T02:43:07;16.60;;;11.90;;
52530;SDS011;38441;52.894;6.040;2024-01-30T02:45:33;17.40;;;13.15;;
52530;SDS011;38441;52.894;6.040;2024-01-30T02:47:58;17.98;;;12.55;;
52530;SDS011;38441;52.894;6.040;2024-01-30T02:50:24;20.27;;;13.30;;
52530;SDS011;38441;52.894;6.040;2024-01-30T02:52:50;16.73;;;12.65;;
52530;SDS011;38441;52.894;6.040;2024-01-30T02:55:16;19.95;;;12.95;;
52530;SDS011;38441;52.894;6.040;2024-01-30T02:57:44;16.35;;;12.13;;
52530;SDS011;38441;52.894;6.040;2024-01-30T03:00:10;17.73;;;12.95;;
52530;SDS011;38441;52.894;6.040;2024-01-30T03:02:37;15.93;;;11.98;;
52530;SDS011;38441;52.894;6.040;2024-01-30T03:05:03;20.05;;;12.75;;
52530;SDS011;38441;52.894;6.040;2024-01-30T03:07:29;18.20;;;12.48;;
52530;SDS011;38441;52.894;6.040;2024-01-30T03:09:55;21.33;;;12.48;;
52530;SDS011;38441;52.894;6.040;2024-01-30T03:12:21;19.48;;;13.07;;
52530;SDS011;38441;52.894;6.040;2024-01-30T03:14:47;18.27;;;11.98;;
52530;SDS011;38441;52.894;6.040;2024-01-30T03:17:14;16.38;;;12.35;;
52530;SDS011;38441;52.894;6.040;2024-01-30T03:19:40;17.58;;;12.63;;
52530;SDS011;38441;52.894;6.040;2024-01-30T03:22:06;16.45;;;12.40;;
52530;SDS011;38441;52.894;6.040;2024-01-30T03:24:32;19.67;;;12.73;;
52530;SDS011;38441;52.894;6.040;2024-01-30T03:26:57;17.92;;;13.45;;
52530;SDS011;38441;52.894;6.040;2024-01-30T03:29:23;17.73;;;12.60;;
52530;SDS011;38441;52.894;6.040;2024-01-30T03:31:49;15.70;;;11.77;;
52530;SDS011;38441;52.894;6.040;2024-01-30T03:34:15;18.08;;;11.95;;
52530;SDS011;38441;52.894;6.040;2024-01-30T03:36:41;19.00;;;13.05;;
52530;SDS011;38441;52.894;6.040;2024-01-30T03:39:07;17.65;;;12.88;;
52530;SDS011;38441;52.894;6.040;2024-01-30T03:41:33;16.33;;;11.68;;
52530;SDS011;38441;52.894;6.040;2024-01-30T03:43:59;16.30;;;11.15;;
52530;SDS011;38441;52.894;6.040;2024-01-30T03:46:25;14.77;;;11.38;;
52530;SDS011;38441;52.894;6.040;2024-01-30T03:48:51;15.38;;;10.98;;
52530;SDS011;38441;52.894;6.040;2024-01-30T03:51:17;14.30;;;10.65;;
52530;SDS011;38441;52.894;6.040;2024-01-30T03:53:43;15.10;;;11.15;;
52530;SDS011;38441;52.894;6.040;2024-01-30T03:56:11;16.33;;;11.85;;
52530;SDS011;38441;52.894;6.040;2024-01-30T03:58:38;15.68;;;11.27;;
52530;SDS011;38441;52.894;6.040;2024-01-30T04:01:03;14.27;;;10.80;;
52530;SDS011;38441;52.894;6.040;2024-01-30T04:03:29;15.13;;;10.80;;
52530;SDS011;38441;52.894;6.040;2024-01-30T04:05:56;17.75;;;11.70;;
52530;SDS011;38441;52.894;6.040;2024-01-30T04:08:22;14.90;;;10.48;;
52530;SDS011;38441;52.894;6.040;2024-01-30T04:10:48;13.32;;;10.70;;
52530;SDS011;38441;52.894;6.040;2024-01-30T04:13:13;16.08;;;11.13;;
52530;SDS011;38441;52.894;6.040;2024-01-30T04:15:39;16.02;;;10.90;;
52530;SDS011;38441;52.894;6.040;2024-01-30T04:18:05;17.08;;;11.23;;
52530;SDS011;38441;52.894;6.040;2024-01-30T04:20:32;15.10;;;10.65;;
52530;SDS011;38441;52.894;6.040;2024-01-30T04:22:58;13.98;;;10.25;;
52530;SDS011;38441;52.894;6.040;2024-01-30T04:25:24;15.23;;;11.18;;
52530;SDS011;38441;52.894;6.040;2024-01-30T04:27:50;16.27;;;10.93;;
52530;SDS011;38441;52.894;6.040;2024-01-30T04:30:16;14.98;;;10.90;;
52530;SDS011;38441;52.894;6.040;2024-01-30T04:32:43;16.55;;;10.32;;
52530;SDS011;38441;52.894;6.040;2024-01-30T04:35:08;13.68;;;10.00;;
52530;SDS011;38441;52.894;6.040;2024-01-30T04:37:34;14.82;;;10.48;;
52530;SDS011;38441;52.894;6.040;2024-01-30T04:40:00;14.82;;;10.18;;
52530;SDS011;38441;52.894;6.040;2024-01-30T04:42:26;14.38;;;10.40;;
52530;SDS011;38441;52.894;6.040;2024-01-30T04:44:52;13.02;;;10.13;;
52530;SDS011;38441;52.894;6.040;2024-01-30T04:47:18;17.70;;;11.02;;
52530;SDS011;38441;52.894;6.040;2024-01-30T04:49:44;14.70;;;10.48;;
52530;SDS011;38441;52.894;6.040;2024-01-30T04:52:10;17.17;;;11.13;;
52530;SDS011;38441;52.894;6.040;2024-01-30T04:54:35;14.32;;;10.27;;
52530;SDS011;38441;52.894;6.040;2024-01-30T04:57:01;14.20;;;9.82;;
52530;SDS011;38441;52.894;6.040;2024-01-30T04:59:27;20.00;;;9.70;;
52530;SDS011;38441;52.894;6.040;2024-01-30T05:01:53;14.80;;;10.70;;
52530;SDS011;38441;52.894;6.040;2024-01-30T05:04:19;15.50;;;10.48;;
52530;SDS011;38441;52.894;6.040;2024-01-30T05:06:45;16.58;;;11.00;;
52530;SDS011;38441;52.894;6.040;2024-01-30T05:09:11;16.25;;;11.68;;
52530;SDS011;38441;52.894;6.040;2024-01-30T05:11:38;15.23;;;10.18;;
52530;SDS011;38441;52.894;6.040;2024-01-30T05:14:07;16.30;;;11.32;;
52530;SDS011;38441;52.894;6.040;2024-01-30T05:16:34;13.90;;;10.70;;
52530;SDS011;38441;52.894;6.040;2024-01-30T05:18:59;14.95;;;10.73;;
52530;SDS011;38441;52.894;6.040;2024-01-30T05:21:25;17.05;;;10.75;;
52530;SDS011;38441;52.894;6.040;2024-01-30T05:23:51;14.10;;;9.95;;
52530;SDS011;38441;52.894;6.040;2024-01-30T05:26:17;14.43;;;11.00;;
52530;SDS011;38441;52.894;6.040;2024-01-30T05:28:43;15.82;;;10.43;;
52530;SDS011;38441;52.894;6.040;2024-01-30T05:31:13;15.02;;;10.88;;
52530;SDS011;38441;52.894;6.040;2024-01-30T05:33:39;15.27;;;10.68;;
52530;SDS011;38441;52.894;6.040;2024-01-30T05:36:05;15.38;;;10.35;;
52530;SDS011;38441;52.894;6.040;2024-01-30T05:38:31;15.55;;;11.20;;
52530;SDS011;38441;52.894;6.040;2024-01-30T05:40:57;15.35;;;11.27;;
52530;SDS011;38441;52.894;6.040;2024-01-30T05:43:23;15.98;;;10.85;;
52530;SDS011;38441;52.894;6.040;2024-01-30T05:45:49;16.30;;;10.68;;
52530;SDS011;38441;52.894;6.040;2024-01-30T05:48:16;15.30;;;10.95;;
52530;SDS011;38441;52.894;6.040;2024-01-30T05:50:41;16.17;;;10.98;;
52530;SDS011;38441;52.894;6.040;2024-01-30T05:53:07;14.68;;;10.70;;
52530;SDS011;38441;52.894;6.040;2024-01-30T05:55:33;16.35;;;11.30;;
52530;SDS011;38441;52.894;6.040;2024-01-30T05:57:59;17.77;;;10.98;;
52530;SDS011;38441;52.894;6.040;2024-01-30T06:00:25;13.45;;;10.10;;
52530;SDS011;38441;52.894;6.040;2024-01-30T06:02:51;13.20;;;9.23;;
52530;SDS011;38441;52.894;6.040;2024-01-30T06:05:16;13.82;;;10.77;;
52530;SDS011;38441;52.894;6.040;2024-01-30T06:07:42;15.43;;;10.48;;
52530;SDS011;38441;52.894;6.040;2024-01-30T06:10:08;14.43;;;10.43;;
52530;SDS011;38441;52.894;6.040;2024-01-30T06:12:34;13.65;;;10.13;;
52530;SDS011;38441;52.894;6.040;2024-01-30T06:15:00;15.68;;;9.80;;
52530;SDS011;38441;52.894;6.040;2024-01-30T06:17:26;12.57;;;9.80;;
52530;SDS011;38441;52.894;6.040;2024-01-30T06:19:52;14.35;;;10.75;;
52530;SDS011;38441;52.894;6.040;2024-01-30T06:22:18;15.85;;;10.48;;
52530;SDS011;38441;52.894;6.040;2024-01-30T06:24:44;13.50;;;10.25;;
52530;SDS011;38441;52.894;6.040;2024-01-30T06:27:12;15.73;;;9.68;;
52530;SDS011;38441;52.894;6.040;2024-01-30T06:29:38;15.10;;;10.20;;
52530;SDS011;38441;52.894;6.040;2024-01-30T06:32:05;13.90;;;9.73;;
52530;SDS011;38441;52.894;6.040;2024-01-30T06:34:31;15.73;;;10.20;;
52530;SDS011;38441;52.894;6.040;2024-01-30T06:36:56;13.95;;;9.65;;
52530;SDS011;38441;52.894;6.040;2024-01-30T06:39:22;13.75;;;9.80;;
52530;SDS011;38441;52.894;6.040;2024-01-30T06:41:48;14.02;;;9.90;;
52530;SDS011;38441;52.894;6.040;2024-01-30T06:44:14;12.80;;;9.50;;
52530;SDS011;38441;52.894;6.040;2024-01-30T06:46:40;15.20;;;9.32;;
52530;SDS011;38441;52.894;6.040;2024-01-30T06:49:06;15.43;;;10.07;;
52530;SDS011;38441;52.894;6.040;2024-01-30T06:51:32;14.85;;;10.25;;
52530;SDS011;38441;52.894;6.040;2024-01-30T06:53:58;16.05;;;9.20;;
52530;SDS011;38441;52.894;6.040;2024-01-30T06:56:24;13.68;;;9.55;;
52530;SDS011;38441;52.894;6.040;2024-01-30T06:58:50;14.60;;;9.25;;
52530;SDS011;38441;52.894;6.040;2024-01-30T07:01:16;13.02;;;8.90;;
52530;SDS011;38441;52.894;6.040;2024-01-30T07:03:42;14.50;;;9.55;;
52530;SDS011;38441;52.894;6.040;2024-01-30T07:06:09;16.27;;;9.60;;
52530;SDS011;38441;52.894;6.040;2024-01-30T07:08:38;16.08;;;9.32;;
52530;SDS011;38441;52.894;6.040;2024-01-30T07:11:04;11.90;;;8.38;;
52530;SDS011;38441;52.894;6.040;2024-01-30T07:13:31;14.95;;;9.70;;
52530;SDS011;38441;52.894;6.040;2024-01-30T07:15:57;14.68;;;9.35;;
52530;SDS011;38441;52.894;6.040;2024-01-30T07:18:23;13.50;;;8.77;;
52530;SDS011;38441;52.894;6.040;2024-01-30T07:20:49;13.35;;;9.85;;
52530;SDS011;38441;52.894;6.040;2024-01-30T07:23:15;14.07;;;8.98;;
52530;SDS011;38441;52.894;6.040;2024-01-30T07:25:45;14.05;;;8.85;;
52530;SDS011;38441;52.894;6.040;2024-01-30T07:28:15;12.40;;;9.07;;
52530;SDS011;38441;52.894;6.040;2024-01-30T07:30:43;16.15;;;9.57;;
52530;SDS011;38441;52.894;6.040;2024-01-30T07:33:09;12.30;;;9.18;;
52530;SDS011;38441;52.894;6.040;2024-01-30T07:35:35;15.48;;;8.63;;
52530;SDS011;38441;52.894;6.040;2024-01-30T07:38:01;15.30;;;9.23;;
52530;SDS011;38441;52.894;6.040;2024-01-30T07:40:27;14.05;;;9.48;;
52530;SDS011;38441;52.894;6.040;2024-01-30T07:42:53;13.43;;;9.55;;
52530;SDS011;38441;52.894;6.040;2024-01-30T07:45:19;12.85;;;9.13;;
52530;SDS011;38441;52.894;6.040;2024-01-30T07:47:49;12.90;;;8.45;;
52530;SDS011;38441;52.894;6.040;2024-01-30T07:50:15;14.20;;;9.27;;
52530;SDS011;38441;52.894;6.040;2024-01-30T07:52:44;14.20;;;8.95;;
52530;SDS011;38441;52.894;6.040;2024-01-30T07:55:10;13.75;;;9.32;;
52530;SDS011;38441;52.894;6.040;2024-01-30T07:57:40;13.13;;;8.75;;
52530;SDS011;38441;52.894;6.040;2024-01-30T08:00:06;12.45;;;8.88;;
52530;SDS011;38441;52.894;6.040;2024-01-30T08:02:32;12.77;;;8.60;;
52530;SDS011;38441;52.894;6.040;2024-01-30T08:04:58;12.35;;;8.75;;
52530;SDS011;38441;52.894;6.040;2024-01-30T08:07:24;11.70;;;8.90;;
52530;SDS011;38441;52.894;6.040;2024-01-30T08:09:49;13.95;;;8.68;;
52530;SDS011;38441;52.894;6.040;2024-01-30T08:12:16;14.15;;;8.95;;
52530;SDS011;38441;52.894;6.040;2024-01-30T08:14:42;11.13;;;8.55;;
52530;SDS011;38441;52.894;6.040;2024-01-30T08:17:07;10.80;;;8.27;;
52530;SDS011;38441;52.894;6.040;2024-01-30T08:19:33;12.48;;;8.82;;
52530;SDS011;38441;52.894;6.040;2024-01-30T08:21:59;12.23;;;8.55;;
52530;SDS011;38441;52.894;6.040;2024-01-30T08:24:25;15.48;;;9.38;;
52530;SDS011;38441;52.894;6.040;2024-01-30T08:26:51;13.73;;;9.27;;
52530;SDS011;38441;52.894;6.040;2024-01-30T08:29:17;14.93;;;8.52;;
52530;SDS011;38441;52.894;6.040;2024-01-30T08:31:43;13.15;;;9.00;;
52530;SDS011;38441;52.894;6.040;2024-01-30T08:34:10;14.55;;;9.65;;
52530;SDS011;38441;52.894;6.040;2024-01-30T08:36:36;14.48;;;9.23;;
52530;SDS011;38441;52.894;6.040;2024-01-30T08:39:02;16.75;;;9.93;;
52530;SDS011;38441;52.894;6.040;2024-01-30T08:41:28;13.88;;;9.68;;
52530;SDS011;38441;52.894;6.040;2024-01-30T08:43:53;13.98;;;9.50;;
52530;SDS011;38441;52.894;6.040;2024-01-30T08:46:19;19.10;;;11.40;;
52530;SDS011;38441;52.894;6.040;2024-01-30T08:48:46;15.82;;;10.05;;
52530;SDS011;38441;52.894;6.040;2024-01-30T08:51:12;12.98;;;9.43;;
52530;SDS011;38441;52.894;6.040;2024-01-30T08:53:39;14.95;;;9.32;;
52530;SDS011;38441;52.894;6.040;2024-01-30T08:56:05;15.50;;;10.02;;
52530;SDS011;38441;52.894;6.040;2024-01-30T08:58:31;13.98;;;9.52;;
52530;SDS011;38441;52.894;6.040;2024-01-30T09:00:58;13.65;;;9.48;;
52530;SDS011;38441;52.894;6.040;2024-01-30T09:03:24;14.07;;;10.18;;
52530;SDS011;38441;52.894;6.040;2024-01-30T09:05:50;14.70;;;10.07;;
52530;SDS011;38441;52.894;6.040;2024-01-30T09:08:16;17.83;;;9.77;;
52530;SDS011;38441;52.894;6.040;2024-01-30T09:10:42;16.33;;;10.05;;
52530;SDS011;38441;52.894;6.040;2024-01-30T09:13:09;14.40;;;10.70;;
52530;SDS011;38441;52.894;6.040;2024-01-30T09:15:35;19.13;;;10.82;;
52530;SDS011;38441;52.894;6.040;2024-01-30T09:18:00;16.17;;;10.80;;
52530;SDS011;38441;52.894;6.040;2024-01-30T09:20:26;18.55;;;11.18;;
52530;SDS011;38441;52.894;6.040;2024-01-30T09:22:52;18.42;;;11.00;;
52530;SDS011;38441;52.894;6.040;2024-01-30T09:25:17;15.90;;;10.57;;
52530;SDS011;38441;52.894;6.040;2024-01-30T09:27:43;17.02;;;10.52;;
52530;SDS011;38441;52.894;6.040;2024-01-30T09:30:09;16.27;;;10.20;;
52530;SDS011;38441;52.894;6.040;2024-01-30T09:32:39;17.45;;;10.10;;
52530;SDS011;38441;52.894;6.040;2024-01-30T09:35:05;14.45;;;9.38;;
52530;SDS011;38441;52.894;6.040;2024-01-30T09:37:31;17.52;;;10.15;;
52530;SDS011;38441;52.894;6.040;2024-01-30T09:39:56;17.08;;;10.48;;
52530;SDS011;38441;52.894;6.040;2024-01-30T09:45:04;14.38;;;9.70;;
52530;SDS011;38441;52.894;6.040;2024-01-30T09:47:41;19.55;;;11.10;;
52530;SDS011;38441;52.894;6.040;2024-01-30T09:50:10;16.58;;;9.45;;
52530;SDS011;38441;52.894;6.040;2024-01-30T09:52:37;16.45;;;10.55;;
52530;SDS011;38441;52.894;6.040;2024-01-30T09:55:03;15.52;;;10.18;;
52530;SDS011;38441;52.894;6.040;2024-01-30T09:57:29;18.30;;;9.80;;
52530;SDS011;38441;52.894;6.040;2024-01-30T09:59:54;20.23;;;9.63;;
52530;SDS011;38441;52.894;6.040;2024-01-30T10:02:21;17.15;;;9.80;;
52530;SDS011;38441;52.894;6.040;2024-01-30T10:04:51;16.30;;;10.20;;
52530;SDS011;38441;52.894;6.040;2024-01-30T10:07:17;15.07;;;8.98;;
52530;SDS011;38441;52.894;6.040;2024-01-30T10:09:44;16.25;;;9.75;;
52530;SDS011;38441;52.894;6.040;2024-01-30T10:12:10;21.98;;;11.15;;
52530;SDS011;38441;52.894;6.040;2024-01-30T10:14:40;17.00;;;11.35;;
52530;SDS011;38441;52.894;6.040;2024-01-30T10:17:10;18.58;;;11.48;;
52530;SDS011;38441;52.894;6.040;2024-01-30T10:19:37;19.55;;;11.88;;
52530;SDS011;38441;52.894;6.040;2024-01-30T10:22:03;18.73;;;10.90;;
52530;SDS011;38441;52.894;6.040;2024-01-30T10:24:29;18.88;;;11.55;;
52530;SDS011;38441;52.894;6.040;2024-01-30T10:26:55;21.08;;;11.95;;
52530;SDS011;38441;52.894;6.040;2024-01-30T10:29:21;20.17;;;11.68;;
52530;SDS011;38441;52.894;6.040;2024-01-30T10:32:03;18.65;;;12.10;;
52530;SDS011;38441;52.894;6.040;2024-01-30T10:34:30;15.93;;;10.30;;
52530;SDS011;38441;52.894;6.040;2024-01-30T10:37:02;19.65;;;10.98;;
52530;SDS011;38441;52.894;6.040;2024-01-30T10:39:46;17.50;;;10.43;;
52530;SDS011;38441;52.894;6.040;2024-01-30T10:42:12;15.32;;;9.70;;
52530;SDS011;38441;52.894;6.040;2024-01-30T10:47:34;18.15;;;10.00;;
52530;SDS011;38441;52.894;6.040;2024-01-30T10:50:03;14.77;;;10.25;;
52530;SDS011;38441;52.894;6.040;2024-01-30T10:52:29;18.08;;;10.57;;
52530;SDS011;38441;52.894;6.040;2024-01-30T10:54:57;19.20;;;11.25;;
52530;SDS011;38441;52.894;6.040;2024-01-30T10:57:24;17.73;;;10.65;;
52530;SDS011;38441;52.894;6.040;2024-01-30T11:00:02;17.05;;;10.45;;
52530;SDS011;38441;52.894;6.040;2024-01-30T11:02:41;15.85;;;9.60;;
52530;SDS011;38441;52.894;6.040;2024-01-30T11:05:09;18.45;;;9.18;;
52530;SDS011;38441;52.894;6.040;2024-01-30T11:07:35;14.68;;;7.60;;
52530;SDS011;38441;52.894;6.040;2024-01-30T11:10:03;15.55;;;6.13;;
52530;SDS011;38441;52.894;6.040;2024-01-30T11:12:37;13.68;;;5.53;;
52530;SDS011;38441;52.894;6.040;2024-01-30T11:15:12;13.25;;;5.97;;
52530;SDS011;38441;52.894;6.040;2024-01-30T11:17:41;19.27;;;4.32;;
52530;SDS011;38441;52.894;6.040;2024-01-30T11:20:29;19.85;;;4.60;;
52530;SDS011;38441;52.894;6.040;2024-01-30T11:22:56;12.85;;;3.72;;
52530;SDS011;38441;52.894;6.040;2024-01-30T11:25:22;11.38;;;4.20;;
52530;SDS011;38441;52.894;6.040;2024-01-30T11:27:49;11.43;;;3.55;;
52530;SDS011;38441;52.894;6.040;2024-01-30T11:32:59;8.38;;;2.20;;
52530;SDS011;38441;52.894;6.040;2024-01-30T11:35:34;7.72;;;2.33;;
52530;SDS011;38441;52.894;6.040;2024-01-30T11:38:01;6.82;;;2.38;;
52530;SDS011;38441;52.894;6.040;2024-01-30T11:40:27;10.00;;;2.25;;
52530;SDS011;38441;52.894;6.040;2024-01-30T11:42:54;9.40;;;2.28;;
52530;SDS011;38441;52.894;6.040;2024-01-30T11:45:21;11.02;;;2.33;;
52530;SDS011;38441;52.894;6.040;2024-01-30T11:47:47;8.75;;;1.75;;
52530;SDS011;38441;52.894;6.040;2024-01-30T11:50:13;7.72;;;1.38;;
52530;SDS011;38441;52.894;6.040;2024-01-30T11:52:39;7.97;;;1.92;;
52530;SDS011;38441;52.894;6.040;2024-01-30T11:55:04;4.53;;;1.00;;
52530;SDS011;38441;52.894;6.040;2024-01-30T11:57:31;5.05;;;1.95;;
52530;SDS011;38441;52.894;6.040;2024-01-30T11:59:56;6.03;;;2.05;;
52530;SDS011;38441;52.894;6.040;2024-01-30T12:02:22;8.90;;;2.53;;
52530;SDS011;38441;52.894;6.040;2024-01-30T12:04:48;6.40;;;2.88;;
52530;SDS011;38441;52.894;6.040;2024-01-30T12:07:13;6.47;;;2.03;;
52530;SDS011;38441;52.894;6.040;2024-01-30T12:09:41;5.18;;;1.35;;
52530;SDS011;38441;52.894;6.040;2024-01-30T12:12:07;1.77;;;1.10;;
52530;SDS011;38441;52.894;6.040;2024-01-30T12:14:37;2.72;;;0.77;;
52530;SDS011;38441;52.894;6.040;2024-01-30T12:17:04;3.42;;;1.02;;
52530;SDS011;38441;52.894;6.040;2024-01-30T12:19:29;4.55;;;1.20;;
52530;SDS011;38441;52.894;6.040;2024-01-30T12:21:58;2.92;;;0.80;;
52530;SDS011;38441;52.894;6.040;2024-01-30T12:24:25;2.85;;;0.75;;
52530;SDS011;38441;52.894;6.040;2024-01-30T12:26:51;5.25;;;1.10;;
52530;SDS011;38441;52.894;6.040;2024-01-30T12:29:18;5.55;;;1.90;;
52530;SDS011;38441;52.894;6.040;2024-01-30T12:31:45;7.63;;;3.50;;
52530;SDS011;38441;52.894;6.040;2024-01-30T12:34:13;12.32;;;4.88;;
52530;SDS011;38441;52.894;6.040;2024-01-30T12:36:41;12.40;;;3.97;;
52530;SDS011;38441;52.894;6.040;2024-01-30T12:39:10;11.95;;;4.30;;
52530;SDS011;38441;52.894;6.040;2024-01-30T12:41:38;9.32;;;3.97;;
52530;SDS011;38441;52.894;6.040;2024-01-30T12:44:03;7.30;;;2.80;;
52530;SDS011;38441;52.894;6.040;2024-01-30T12:46:29;6.88;;;2.55;;
52530;SDS011;38441;52.894;6.040;2024-01-30T12:48:55;4.85;;;2.13;;
52530;SDS011;38441;52.894;6.040;2024-01-30T12:51:20;6.47;;;1.80;;
52530;SDS011;38441;52.894;6.040;2024-01-30T12:53:46;3.85;;;1.10;;
52530;SDS011;38441;52.894;6.040;2024-01-30T12:56:13;1.95;;;0.68;;
52530;SDS011;38441;52.894;6.040;2024-01-30T12:58:40;2.08;;;0.40;;
52530;SDS011;38441;52.894;6.040;2024-01-30T13:01:08;2.90;;;0.60;;
52530;SDS011;38441;52.894;6.040;2024-01-30T13:03:34;4.55;;;0.35;;
52530;SDS011;38441;52.894;6.040;2024-01-30T13:06:00;3.78;;;0.60;;
52530;SDS011;38441;52.894;6.040;2024-01-30T13:08:25;2.70;;;0.60;;
52530;SDS011;38441;52.894;6.040;2024-01-30T13:10:51;3.20;;;0.80;;
52530;SDS011;38441;52.894;6.040;2024-01-30T13:13:17;3.15;;;0.60;;
52530;SDS011;38441;52.894;6.040;2024-01-30T13:15:42;3.45;;;0.40;;
52530;SDS011;38441;52.894;6.040;2024-01-30T13:18:08;3.17;;;0.50;;
52530;SDS011;38441;52.894;6.040;2024-01-30T13:20:33;1.58;;;0.40;;
52530;SDS011;38441;52.894;6.040;2024-01-30T13:22:59;4.03;;;0.55;;
52530;SDS011;38441;52.894;6.040;2024-01-30T13:25:25;2.40;;;0.50;;
52530;SDS011;38441;52.894;6.040;2024-01-30T13:27:51;5.95;;;0.40;;
52530;SDS011;38441;52.894;6.040;2024-01-30T13:30:16;4.63;;;1.40;;
52530;SDS011;38441;52.894;6.040;2024-01-30T13:32:42;6.10;;;0.95;;
52530;SDS011;38441;52.894;6.040;2024-01-30T13:35:09;2.80;;;0.70;;
52530;SDS011;38441;52.894;6.040;2024-01-30T13:37:35;2.78;;;0.55;;
52530;SDS011;38441;52.894;6.040;2024-01-30T13:40:02;4.50;;;0.82;;
52530;SDS011;38441;52.894;6.040;2024-01-30T13:42:31;3.57;;;0.70;;
52530;SDS011;38441;52.894;6.040;2024-01-30T13:44:57;2.47;;;0.73;;
52530;SDS011;38441;52.894;6.040;2024-01-30T13:49:54;5.18;;;0.70;;
52530;SDS011;38441;52.894;6.040;2024-01-30T13:52:20;2.72;;;0.70;;
52530;SDS011;38441;52.894;6.040;2024-01-30T13:54:46;4.57;;;0.90;;
52530;SDS011;38441;52.894;6.040;2024-01-30T13:57:11;6.00;;;0.98;;
52530;SDS011;38441;52.894;6.040;2024-01-30T13:59:38;5.07;;;1.10;;
52530;SDS011;38441;52.894;6.040;2024-01-30T14:02:04;4.47;;;1.10;;
52530;SDS011;38441;52.894;6.040;2024-01-30T14:04:30;4.53;;;1.60;;
52530;SDS011;38441;52.894;6.040;2024-01-30T14:06:56;4.35;;;1.38;;
52530;SDS011;38441;52.894;6.040;2024-01-30T14:09:22;6.05;;;1.65;;
52530;SDS011;38441;52.894;6.040;2024-01-30T14:11:47;5.25;;;1.55;;
52530;SDS011;38441;52.894;6.040;2024-01-30T14:14:13;4.25;;;1.38;;
52530;SDS011;38441;52.894;6.040;2024-01-30T14:16:39;6.63;;;1.75;;
52530;SDS011;38441;52.894;6.040;2024-01-30T14:19:05;7.85;;;1.60;;
52530;SDS011;38441;52.894;6.040;2024-01-30T14:21:31;5.30;;;1.75;;
52530;SDS011;38441;52.894;6.040;2024-01-30T14:23:56;6.63;;;1.98;;
52530;SDS011;38441;52.894;6.040;2024-01-30T14:26:22;6.28;;;1.50;;
52530;SDS011;38441;52.894;6.040;2024-01-30T14:28:48;5.05;;;1.63;;
52530;SDS011;38441;52.894;6.040;2024-01-30T14:31:14;4.75;;;1.52;;
52530;SDS011;38441;52.894;6.040;2024-01-30T14:33:41;7.57;;;1.92;;
52530;SDS011;38441;52.894;6.040;2024-01-30T14:36:07;3.95;;;1.75;;
52530;SDS011;38441;52.894;6.040;2024-01-30T14:38:34;4.88;;;2.60;;